createdAt,value
2019-01-29T00:02:04.491Z,4.50
2019-01-29T00:04:33.877Z,4.53
2019-01-29T00:07:03.532Z,4.53
2019-01-29T00:09:33.945Z,4.43
2019-01-29T00:12:05.103Z,4.50
2019-01-29T00:14:35.704Z,5.17
2019-01-29T00:17:06.275Z,4.15
2019-01-29T00:19:36.784Z,5.08
2019-01-29T00:22:07.868Z,5.15
2019-01-29T00:24:37.288Z,4.50
2019-01-29T00:27:06.669Z,4.87
2019-01-29T00:29:36.316Z,4.67
2019-01-29T00:32:06.072Z,4.90
2019-01-29T00:34:38.624Z,4.95
2019-01-29T00:37:08.294Z,5.40
2019-01-29T00:39:38.769Z,4.78
2019-01-29T00:42:09.651Z,5.00
2019-01-29T00:44:41.009Z,4.70
2019-01-29T00:47:11.128Z,4.80
2019-01-29T00:49:41.962Z,4.80
2019-01-29T00:52:11.568Z,4.80
2019-01-29T00:54:42.163Z,5.72
2019-01-29T00:57:13.470Z,4.93
2019-01-29T00:59:42.955Z,5.17
2019-01-29T01:02:12.435Z,4.60
2019-01-29T01:04:42.207Z,4.65
2019-01-29T01:07:12.936Z,5.50
2019-01-29T01:09:43.363Z,5.60
2019-01-29T01:12:14.573Z,5.03
2019-01-29T01:14:45.449Z,4.53
2019-01-29T01:17:14.950Z,4.43
2019-01-29T01:19:44.392Z,4.90
2019-01-29T01:22:14.125Z,5.10
2019-01-29T01:24:44.702Z,4.80
2019-01-29T01:27:14.137Z,5.30
2019-01-29T01:29:43.745Z,5.07
2019-01-29T01:32:13.131Z,4.55
2019-01-29T01:34:42.551Z,4.47
2019-01-29T01:37:13.821Z,4.30
2019-01-29T01:39:45.023Z,4.97
2019-01-29T01:42:14.425Z,4.53
2019-01-29T01:44:43.909Z,4.57
2019-01-29T01:47:13.411Z,5.10
2019-01-29T01:49:44.016Z,4.90
2019-01-29T01:52:13.700Z,4.50
2019-01-29T01:54:43.100Z,4.53
2019-01-29T01:57:14.313Z,4.60
2019-01-29T01:59:46.554Z,4.60
2019-01-29T02:02:16.002Z,4.07
2019-01-29T02:04:45.429Z,4.17
2019-01-29T02:07:14.872Z,4.23
2019-01-29T02:09:45.713Z,4.30
2019-01-29T02:12:16.315Z,4.47
2019-01-29T02:14:48.479Z,4.50
2019-01-29T02:17:18.105Z,3.57
2019-01-29T02:19:48.683Z,4.63
2019-01-29T02:22:18.369Z,4.43
2019-01-29T02:24:47.912Z,4.17
2019-01-29T02:27:19.009Z,3.93
2019-01-29T02:29:48.432Z,4.10
2019-01-29T02:32:18.827Z,3.90
2019-01-29T02:34:50.013Z,3.57
2019-01-29T02:37:20.885Z,3.50
2019-01-29T02:39:50.392Z,3.93
2019-01-29T02:42:19.932Z,3.90
2019-01-29T02:44:52.539Z,3.43
2019-01-29T02:47:21.925Z,4.13
2019-01-29T02:49:51.330Z,3.67
2019-01-29T02:52:21.164Z,4.00
2019-01-29T02:54:51.627Z,3.40
2019-01-29T02:57:21.048Z,3.60
2019-01-29T02:59:50.503Z,3.57
2019-01-29T03:02:19.952Z,3.13
2019-01-29T03:04:49.367Z,3.37
2019-01-29T03:07:18.929Z,3.60
2019-01-29T03:09:48.438Z,3.47
2019-01-29T03:12:18.341Z,2.97
2019-01-29T03:14:48.000Z,3.10
2019-01-29T03:17:17.409Z,3.70
2019-01-29T03:19:46.794Z,2.60
2019-01-29T03:22:17.478Z,3.17
2019-01-29T03:24:46.958Z,3.20
2019-01-29T03:27:17.727Z,3.10
2019-01-29T03:29:47.315Z,3.10
2019-01-29T03:32:16.794Z,3.40
2019-01-29T03:34:46.273Z,3.37
2019-01-29T03:37:15.829Z,2.90
2019-01-29T03:39:47.129Z,2.93
2019-01-29T03:42:16.546Z,3.00
2019-01-29T03:44:47.715Z,3.00
2019-01-29T03:47:18.603Z,2.90
2019-01-29T03:49:48.047Z,2.97
2019-01-29T03:52:19.595Z,3.63
2019-01-29T03:54:48.996Z,3.30
2019-01-29T03:57:18.400Z,3.50
2019-01-29T03:59:47.851Z,3.30
2019-01-29T04:02:17.276Z,3.67
2019-01-29T04:04:46.967Z,3.13
2019-01-29T04:07:16.571Z,2.90
2019-01-29T04:09:47.398Z,3.27
2019-01-29T04:12:18.642Z,3.10
2019-01-29T04:14:50.816Z,2.87
2019-01-29T04:17:22.278Z,3.10
2019-01-29T04:19:51.676Z,2.90
2019-01-29T04:22:23.167Z,2.83
2019-01-29T04:24:52.661Z,3.10
2019-01-29T04:27:23.519Z,3.80
2019-01-29T04:29:53.066Z,3.03
2019-01-29T04:32:22.750Z,3.17
2019-01-29T04:34:52.184Z,3.00
2019-01-29T04:37:21.735Z,3.07
2019-01-29T04:39:52.661Z,2.93
2019-01-29T04:42:23.290Z,3.23
2019-01-29T04:44:57.542Z,3.07
2019-01-29T04:47:28.749Z,3.07
2019-01-29T04:49:59.257Z,3.20
2019-01-29T04:52:28.992Z,3.23
2019-01-29T04:55:00.992Z,3.20
2019-01-29T04:57:31.420Z,2.90
2019-01-29T05:00:01.101Z,3.40
2019-01-29T05:02:30.798Z,3.83
2019-01-29T05:05:00.200Z,4.00
2019-01-29T05:07:29.814Z,3.35
2019-01-29T05:10:01.470Z,3.83
2019-01-29T05:12:30.868Z,3.00
2019-01-29T05:15:03.071Z,3.00
2019-01-29T05:17:32.480Z,3.67
2019-01-29T05:20:02.194Z,3.10
2019-01-29T05:22:34.450Z,3.37
2019-01-29T05:25:06.980Z,2.83
2019-01-29T05:27:36.514Z,3.23
2019-01-29T05:30:08.618Z,3.10
2019-01-29T05:32:38.001Z,4.47
2019-01-29T05:35:07.975Z,3.52
2019-01-29T05:37:37.554Z,3.83
2019-01-29T05:40:09.380Z,3.52
2019-01-29T05:42:38.754Z,3.43
2019-01-29T05:45:10.947Z,3.62
2019-01-29T05:47:41.562Z,3.50
2019-01-29T05:50:13.309Z,3.20
2019-01-29T05:52:42.863Z,3.17
2019-01-29T05:55:12.708Z,3.40
2019-01-29T05:57:42.461Z,3.30
2019-01-29T06:00:16.024Z,3.20
2019-01-29T06:02:45.571Z,3.60
2019-01-29T06:05:15.439Z,3.20
2019-01-29T06:07:45.060Z,3.83
2019-01-29T06:10:15.113Z,3.73
2019-01-29T06:12:44.472Z,3.37
2019-01-29T06:15:16.134Z,3.57
2019-01-29T06:17:45.728Z,3.13
2019-01-29T06:20:18.911Z,3.53
2019-01-29T06:22:49.716Z,3.30
2019-01-29T06:25:19.137Z,3.40
2019-01-29T06:27:48.777Z,2.93
2019-01-29T06:30:20.103Z,3.40
2019-01-29T06:32:49.694Z,3.13
2019-01-29T06:35:19.932Z,3.53
2019-01-29T06:37:49.339Z,4.10
2019-01-29T06:40:21.177Z,4.37
2019-01-29T06:42:51.269Z,4.27
2019-01-29T06:45:21.631Z,3.87
2019-01-29T06:47:51.150Z,4.00
2019-01-29T06:50:22.804Z,3.93
2019-01-29T06:52:52.255Z,4.40
2019-01-29T06:55:22.355Z,4.37
2019-01-29T06:57:55.679Z,4.30
2019-01-29T07:00:25.559Z,4.20
2019-01-29T07:02:55.188Z,4.63
2019-01-29T07:05:25.341Z,5.15
2019-01-29T07:07:55.003Z,4.92
2019-01-29T07:10:25.377Z,4.78
2019-01-29T07:12:55.304Z,4.67
2019-01-29T07:15:43.461Z,5.40
2019-01-29T07:18:22.594Z,5.35
2019-01-29T07:20:53.029Z,4.97
2019-01-29T07:23:22.940Z,5.53
2019-01-29T07:25:52.741Z,5.20
2019-01-29T07:28:22.186Z,5.77
2019-01-29T07:30:51.631Z,5.33
2019-01-29T07:33:21.254Z,4.70
2019-01-29T07:35:50.860Z,5.60
2019-01-29T07:38:20.366Z,5.00
2019-01-29T07:40:49.938Z,4.97
2019-01-29T07:43:19.336Z,5.30
2019-01-29T07:45:48.723Z,4.87
2019-01-29T07:48:18.410Z,5.07
2019-01-29T07:50:47.849Z,5.10
2019-01-29T07:53:17.285Z,4.37
2019-01-29T07:55:47.921Z,5.20
2019-01-29T07:58:17.381Z,4.83
2019-01-29T08:00:46.835Z,4.63
2019-01-29T08:03:16.284Z,5.07
2019-01-29T08:05:45.846Z,4.40
2019-01-29T08:08:15.347Z,4.90
2019-01-29T08:10:44.926Z,5.17
2019-01-29T08:13:14.550Z,4.23
2019-01-29T08:15:44.054Z,3.83
2019-01-29T08:18:15.002Z,3.83
2019-01-29T08:20:45.628Z,4.23
2019-01-29T08:23:15.256Z,4.77
2019-01-29T08:25:47.986Z,3.90
2019-01-29T08:28:16.180Z,4.17
2019-01-29T08:30:45.596Z,3.70
2019-01-29T08:33:15.225Z,3.90
2019-01-29T08:35:44.599Z,4.07
2019-01-29T08:38:14.024Z,3.92
2019-01-29T08:40:43.588Z,3.77
2019-01-29T08:43:12.985Z,3.92
2019-01-29T08:45:42.397Z,3.43
2019-01-29T08:48:11.963Z,3.42
2019-01-29T08:50:41.477Z,3.97
2019-01-29T08:53:10.871Z,4.07
2019-01-29T08:55:40.380Z,3.80
2019-01-29T08:58:11.487Z,4.22
2019-01-29T09:00:41.114Z,4.22
2019-01-29T09:03:10.548Z,4.30
2019-01-29T09:05:40.962Z,4.10
2019-01-29T09:08:10.645Z,3.62
2019-01-29T09:10:40.251Z,4.28
2019-01-29T09:13:09.648Z,4.13
2019-01-29T09:15:40.162Z,4.70
2019-01-29T09:18:09.659Z,5.80
2019-01-29T09:20:40.317Z,5.40
2019-01-29T09:23:09.779Z,4.80
2019-01-29T09:25:41.171Z,5.50
2019-01-29T09:28:10.760Z,5.27
2019-01-29T09:30:43.936Z,5.50
2019-01-29T09:33:13.759Z,5.60
2019-01-29T09:35:43.133Z,5.60
2019-01-29T09:38:14.506Z,6.03
2019-01-29T09:40:43.954Z,6.07
2019-01-29T09:43:14.824Z,5.60
2019-01-29T09:45:44.328Z,5.60
2019-01-29T09:48:13.781Z,5.17
2019-01-29T09:50:43.211Z,4.62
2019-01-29T09:53:14.498Z,5.00
2019-01-29T09:55:45.268Z,5.33
2019-01-29T09:58:14.709Z,4.47
2019-01-29T10:00:45.907Z,4.80
2019-01-29T10:03:15.541Z,4.90
2019-01-29T10:05:46.004Z,4.80
2019-01-29T10:08:16.721Z,5.23
2019-01-29T10:10:47.432Z,5.23
2019-01-29T10:13:18.660Z,4.87
2019-01-29T10:15:48.082Z,4.80
2019-01-29T10:18:17.556Z,5.07
2019-01-29T10:20:48.442Z,5.07
2019-01-29T10:23:17.856Z,5.63
2019-01-29T10:25:47.559Z,6.08
2019-01-29T10:28:18.166Z,5.87
2019-01-29T10:30:49.456Z,5.73
2019-01-29T10:33:19.478Z,5.97
2019-01-29T10:35:49.171Z,5.60
2019-01-29T10:38:18.567Z,5.50
2019-01-29T10:40:48.507Z,6.00
2019-01-29T10:43:17.915Z,5.20
2019-01-29T10:45:48.944Z,5.22
2019-01-29T10:48:18.610Z,4.50
2019-01-29T10:50:48.117Z,5.27
2019-01-29T10:53:17.624Z,4.47
2019-01-29T10:55:49.735Z,4.90
2019-01-29T10:58:20.216Z,4.73
2019-01-29T11:00:51.066Z,4.37
2019-01-29T11:03:23.671Z,4.00
2019-01-29T11:05:53.094Z,4.00
2019-01-29T11:08:22.473Z,4.30
2019-01-29T11:10:52.024Z,4.20
2019-01-29T11:13:21.491Z,4.00
2019-01-29T11:15:52.732Z,3.67
2019-01-29T11:18:22.499Z,3.60
2019-01-29T11:20:51.887Z,3.83
2019-01-29T11:23:21.393Z,4.53
2019-01-29T11:25:55.985Z,4.20
2019-01-29T11:28:22.088Z,3.90
2019-01-29T11:30:51.576Z,3.50
2019-01-29T11:33:22.531Z,4.57
2019-01-29T11:35:51.956Z,4.43
2019-01-29T11:38:23.162Z,4.20
2019-01-29T11:40:52.847Z,3.80
2019-01-29T11:43:22.306Z,3.97
2019-01-29T11:45:53.816Z,5.20
2019-01-29T11:48:23.877Z,4.73
2019-01-29T11:50:53.372Z,4.53
2019-01-29T11:53:22.783Z,7.13
2019-01-29T11:55:52.323Z,5.23
2019-01-29T11:58:21.731Z,5.40
2019-01-29T12:01:05.935Z,5.43
2019-01-29T12:03:37.897Z,4.83
2019-01-29T12:06:07.648Z,5.80
2019-01-29T12:08:38.441Z,5.50
2019-01-29T12:11:08.114Z,5.23
2019-01-29T12:13:37.494Z,5.47
2019-01-29T12:16:07.084Z,5.20
2019-01-29T12:18:36.513Z,5.40
2019-01-29T12:21:07.379Z,5.23
2019-01-29T12:23:36.783Z,4.90
2019-01-29T12:26:12.892Z,5.03
2019-01-29T12:28:37.576Z,5.40
2019-01-29T12:31:07.055Z,4.90
2019-01-29T12:33:36.470Z,5.07
2019-01-29T12:36:05.887Z,4.73
2019-01-29T12:38:37.538Z,5.72
2019-01-29T12:41:08.615Z,5.47
2019-01-29T12:43:39.238Z,5.47
2019-01-29T12:46:09.005Z,5.53
2019-01-29T12:48:38.401Z,6.87
2019-01-29T12:51:14.237Z,7.83
2019-01-29T12:53:47.857Z,7.97
2019-01-29T12:56:21.588Z,7.80
2019-01-29T12:58:49.905Z,8.47
2019-01-29T13:01:19.831Z,7.90
2019-01-29T13:03:49.460Z,8.63
2019-01-29T13:06:18.959Z,9.50
2019-01-29T13:08:48.524Z,9.60
2019-01-29T13:11:17.974Z,10.37
2019-01-29T13:13:47.395Z,10.83
2019-01-29T13:16:18.955Z,10.13
2019-01-29T13:18:48.374Z,10.20
2019-01-29T13:21:18.779Z,10.43
2019-01-29T13:23:48.472Z,10.13
2019-01-29T13:26:17.897Z,10.70
2019-01-29T13:28:50.918Z,9.50
2019-01-29T13:31:20.442Z,9.63
2019-01-29T13:33:49.859Z,9.27
2019-01-29T13:36:19.270Z,9.43
2019-01-29T13:38:50.676Z,9.27
2019-01-29T13:41:20.533Z,9.77
2019-01-29T13:43:51.473Z,9.57
2019-01-29T13:46:21.291Z,8.57
2019-01-29T13:48:50.847Z,9.03
2019-01-29T13:51:20.251Z,8.60
2019-01-29T13:53:49.856Z,7.92
2019-01-29T13:56:19.348Z,9.30
2019-01-29T13:58:49.789Z,8.90
2019-01-29T14:01:19.405Z,8.50
2019-01-29T14:03:48.898Z,9.10
2019-01-29T14:06:20.794Z,8.60
2019-01-29T14:08:53.609Z,8.03
2019-01-29T14:11:22.870Z,8.77
2019-01-29T14:13:53.407Z,7.97
2019-01-29T14:16:23.215Z,8.10
2019-01-29T14:18:52.764Z,8.27
2019-01-29T14:21:23.382Z,7.83
2019-01-29T14:23:55.681Z,7.80
2019-01-29T14:26:25.742Z,7.60
2019-01-29T14:28:56.886Z,7.47
2019-01-29T14:31:26.606Z,7.23
2019-01-29T14:33:57.849Z,7.60
2019-01-29T14:36:28.448Z,7.77
2019-01-29T14:39:31.489Z,8.00
2019-01-29T14:42:00.882Z,7.97
2019-01-29T14:44:40.363Z,9.00
2019-01-29T14:47:10.012Z,6.97
2019-01-29T14:49:39.431Z,7.50
2019-01-29T14:52:08.966Z,6.77
2019-01-29T14:54:38.527Z,7.67
2019-01-29T14:57:07.948Z,6.83
2019-01-29T14:59:37.354Z,7.30
2019-01-29T15:02:06.956Z,7.08
2019-01-29T15:04:36.345Z,7.30
2019-01-29T15:07:06.967Z,6.72
2019-01-29T15:09:36.648Z,6.90
2019-01-29T15:12:06.054Z,6.63
2019-01-29T15:14:35.540Z,6.40
2019-01-29T15:17:24.203Z,6.17
2019-01-29T15:19:53.672Z,6.00
2019-01-29T15:22:24.167Z,6.20
2019-01-29T15:24:53.649Z,5.90
2019-01-29T15:27:23.680Z,5.93
2019-01-29T15:29:53.223Z,6.00
2019-01-29T15:32:22.904Z,5.77
2019-01-29T15:34:52.481Z,6.30
2019-01-29T15:37:23.116Z,6.33
2019-01-29T15:39:52.669Z,6.83
2019-01-29T15:42:22.073Z,5.63
2019-01-29T15:44:52.689Z,6.27
2019-01-29T15:47:23.624Z,6.43
2019-01-29T15:49:53.025Z,6.80
2019-01-29T15:52:30.049Z,6.90
2019-01-29T15:55:02.158Z,7.20
2019-01-29T15:57:32.855Z,7.40
2019-01-29T16:00:02.300Z,8.00
2019-01-29T16:02:37.340Z,7.42
2019-01-29T16:05:10.233Z,7.53
2019-01-29T16:07:39.718Z,7.85
2019-01-29T16:10:12.760Z,7.58
2019-01-29T16:12:42.275Z,8.17
2019-01-29T16:15:13.867Z,10.13
2019-01-29T16:17:43.841Z,9.43
2019-01-29T16:20:16.076Z,8.70
2019-01-29T16:22:45.488Z,9.30
2019-01-29T16:25:16.125Z,9.17
2019-01-29T16:27:49.122Z,10.10
2019-01-29T16:30:21.248Z,9.67
2019-01-29T16:32:51.007Z,9.70
2019-01-29T16:35:26.004Z,10.03
2019-01-29T16:37:56.178Z,10.40
2019-01-29T16:40:28.065Z,11.15
2019-01-29T16:42:57.631Z,11.57
2019-01-29T16:45:29.890Z,10.93
2019-01-29T16:48:00.328Z,11.33
2019-01-29T16:50:30.045Z,10.83
2019-01-29T16:53:00.146Z,11.17
2019-01-29T16:55:31.770Z,12.57
2019-01-29T16:58:01.380Z,11.20
2019-01-29T17:00:32.075Z,11.15
2019-01-29T17:03:01.818Z,11.30
2019-01-29T17:05:34.927Z,10.80
2019-01-29T17:08:04.709Z,10.90
2019-01-29T17:10:34.207Z,11.03
2019-01-29T17:13:03.593Z,11.67
2019-01-29T17:15:33.348Z,13.03
2019-01-29T17:18:03.342Z,11.77
2019-01-29T17:20:36.053Z,12.37
2019-01-29T17:23:06.823Z,11.88
2019-01-29T17:25:36.699Z,12.43
2019-01-29T17:28:06.308Z,12.00
2019-01-29T17:30:40.767Z,12.63
2019-01-29T17:33:11.497Z,11.63
2019-01-29T17:35:41.729Z,12.50
2019-01-29T17:38:11.613Z,12.10
2019-01-29T17:40:43.675Z,15.45
2019-01-29T17:43:13.243Z,15.30
2019-01-29T17:45:44.692Z,14.87
2019-01-29T17:48:16.079Z,14.87
2019-01-29T17:50:46.580Z,14.33
2019-01-29T17:53:17.107Z,13.70
2019-01-29T17:55:47.727Z,13.33
2019-01-29T17:58:17.137Z,15.00
2019-01-29T18:00:53.666Z,14.53
2019-01-29T18:03:23.368Z,15.20
2019-01-29T18:05:52.983Z,15.03
2019-01-29T18:08:22.496Z,15.17
2019-01-29T18:10:52.141Z,15.43
2019-01-29T18:13:21.691Z,14.70
2019-01-29T18:15:51.227Z,14.87
2019-01-29T18:18:20.773Z,15.57
2019-01-29T18:20:50.236Z,15.00
2019-01-29T18:23:24.652Z,14.77
2019-01-29T18:25:54.484Z,14.80
2019-01-29T18:28:24.955Z,16.50
2019-01-29T18:30:54.395Z,15.83
2019-01-29T18:33:23.861Z,15.27
2019-01-29T18:35:53.303Z,16.23
2019-01-29T18:38:22.748Z,16.13
2019-01-29T18:40:54.774Z,16.60
2019-01-29T18:43:24.380Z,16.00
2019-01-29T18:45:53.943Z,15.67
2019-01-29T18:48:23.649Z,17.73
2019-01-29T18:50:53.049Z,15.40
2019-01-29T18:53:24.707Z,15.33
2019-01-29T18:55:54.242Z,15.20
2019-01-29T18:58:24.645Z,14.43
2019-01-29T19:00:55.930Z,14.83
2019-01-29T19:03:28.382Z,15.20
2019-01-29T19:05:57.912Z,15.10
2019-01-29T19:08:27.317Z,14.30
2019-01-29T19:10:58.036Z,15.67
2019-01-29T19:13:28.474Z,15.80
2019-01-29T19:15:58.975Z,15.07
2019-01-29T19:18:28.725Z,14.97
2019-01-29T19:20:58.284Z,15.33
2019-01-29T19:23:27.776Z,15.43
2019-01-29T19:25:58.554Z,14.50
2019-01-29T19:28:28.191Z,16.20
2019-01-29T19:31:00.170Z,15.73
2019-01-29T19:33:29.959Z,16.17
2019-01-29T19:35:59.611Z,15.95
2019-01-29T19:38:30.419Z,15.70
2019-01-29T19:41:00.318Z,17.17
2019-01-29T19:43:29.762Z,16.70
2019-01-29T19:45:59.327Z,16.20
2019-01-29T19:48:29.844Z,17.83
2019-01-29T19:51:02.576Z,17.43
2019-01-29T19:53:37.874Z,16.93
2019-01-29T19:56:07.384Z,18.07
2019-01-29T19:58:36.814Z,17.13
2019-01-29T20:01:07.732Z,17.67
2019-01-29T20:03:38.248Z,17.95
2019-01-29T20:06:07.713Z,18.87
2019-01-29T20:08:37.431Z,18.00
2019-01-29T20:11:08.449Z,19.20
2019-01-29T20:13:39.638Z,18.23
2019-01-29T20:16:09.422Z,18.07
2019-01-29T20:18:41.124Z,17.80
2019-01-29T20:21:11.150Z,17.90
2019-01-29T20:23:41.411Z,18.40
2019-01-29T20:26:11.974Z,18.35
2019-01-29T20:28:42.592Z,18.42
2019-01-29T20:31:15.015Z,18.25
2019-01-29T20:33:44.585Z,18.57
2019-01-29T20:36:15.474Z,18.83
2019-01-29T20:38:44.949Z,17.90
2019-01-29T20:41:15.381Z,18.48
2019-01-29T20:43:44.902Z,18.17
2019-01-29T20:46:14.874Z,18.03
2019-01-29T20:48:44.360Z,17.00
2019-01-29T20:51:13.784Z,17.90
2019-01-29T20:53:43.481Z,17.80
2019-01-29T20:56:12.961Z,18.82
2019-01-29T20:58:52.325Z,20.13
2019-01-29T21:01:14.106Z,18.85
2019-01-29T21:03:43.662Z,17.90
2019-01-29T21:06:13.238Z,18.90
2019-01-29T21:08:45.893Z,18.10
2019-01-29T21:11:15.390Z,20.33
2019-01-29T21:13:44.803Z,19.30
2019-01-29T21:16:14.376Z,19.43
2019-01-29T21:18:45.594Z,19.90
2019-01-29T21:21:16.061Z,19.40
2019-01-29T21:23:49.058Z,20.23
2019-01-29T21:26:18.722Z,19.37
2019-01-29T21:28:48.441Z,20.50
2019-01-29T21:31:19.543Z,20.23
2019-01-29T21:33:49.064Z,19.27
2019-01-29T21:36:18.411Z,19.47
2019-01-29T21:38:48.176Z,20.47
2019-01-29T21:41:18.795Z,21.30
2019-01-29T21:43:49.231Z,21.00
2019-01-29T21:46:19.311Z,19.35
2019-01-29T21:48:48.961Z,20.07
2019-01-29T21:51:18.391Z,20.57
2019-01-29T21:53:49.106Z,20.50
2019-01-29T21:56:18.527Z,22.00
2019-01-29T21:58:48.196Z,20.10
2019-01-29T22:01:17.783Z,19.80
2019-01-29T22:03:47.618Z,21.03
2019-01-29T22:06:18.445Z,20.10
2019-01-29T22:08:48.531Z,20.43
2019-01-29T22:11:18.332Z,20.30
2019-01-29T22:13:48.934Z,19.00
2019-01-29T22:16:20.850Z,21.17
2019-01-29T22:18:51.894Z,21.00
2019-01-29T22:21:22.840Z,20.00
2019-01-29T22:23:53.598Z,20.17
2019-01-29T22:26:23.168Z,20.87
2019-01-29T22:28:56.111Z,21.30
2019-01-29T22:31:25.826Z,20.97
2019-01-29T22:33:55.252Z,21.57
2019-01-29T22:36:25.832Z,21.00
2019-01-29T22:38:55.252Z,21.53
2019-01-29T22:41:24.704Z,21.07
2019-01-29T22:43:55.191Z,20.83
2019-01-29T22:46:24.859Z,19.33
2019-01-29T22:48:54.262Z,21.27
2019-01-29T22:51:24.812Z,21.40
2019-01-29T22:53:55.466Z,21.73
2019-01-29T22:56:24.927Z,20.77
2019-01-29T23:01:40.031Z,21.57
2019-01-29T23:04:21.574Z,21.17
2019-01-29T23:07:23.029Z,21.17
2019-01-29T23:09:52.459Z,21.27
2019-01-29T23:12:21.885Z,22.37
2019-01-29T23:14:52.978Z,22.50
2019-01-29T23:17:22.371Z,20.97
2019-01-29T23:19:52.867Z,20.80
2019-01-29T23:22:22.563Z,21.60
2019-01-29T23:24:52.114Z,21.33
2019-01-29T23:27:21.606Z,20.47
2019-01-29T23:29:51.385Z,20.87
2019-01-29T23:32:20.826Z,21.27
2019-01-29T23:34:52.116Z,21.90
2019-01-29T23:37:22.062Z,21.20
2019-01-29T23:39:51.547Z,21.10
2019-01-29T23:42:22.194Z,20.13
2019-01-29T23:44:52.658Z,21.07
2019-01-29T23:47:22.096Z,20.00
2019-01-29T23:49:51.648Z,21.53
2019-01-29T23:52:22.682Z,20.93
2019-01-29T23:54:51.993Z,20.40
2019-01-29T23:57:21.347Z,21.37
2019-01-29T23:59:53.705Z,21.10
